Adfines Sun — 9HA2925 — position and weather

sailwx.info

Track history (hours):
 
Tides and Currents Weather Stations Pressure Air Temp Water Temp Dewpoint Dewpoint Depression Visibility Wind Speed Wind Dir Waves Ship Positions

Adfines Sun

Last reported at 2018-Jan-05 11:18 UTC. Time now 2018-Jan-21 03:07 UTC.
Position N 29°24' W 094°49'.
Warning: this ship's position is 15 days out of date.

Length 162 m; draft 6.1 m.

Type: Tanker. MMSI: 256764000.

Date/timePositionNaut miles runAvg speedWind from/ knotsBaromVisibWave heightAir tempDewpointWater temp
2018-Jan-05 11:18N 29°24' W 094°49'613.7
2018-Jan-05 10:52N 29°30' W 094°52'513.5
2018-Jan-05 10:31N 29°34' W 094°55'713.3
2018-Jan-05 10:00N 29°40' W 094°58'5 9.1
2018-Jan-05 09:27N 29°44' W 095°02'4 7.6
2018-Jan-05 08:58N 29°46' W 095°05'3 6.4
2018-Jan-05 08:29N 29°44' W 095°08'1 0.0
2018-Jan-03 11:13N 29°44' W 095°09'0 0.5
2018-Jan-03 11:00N 29°44' W 095°09'2 3.9
2018-Jan-03 10:29N 29°44' W 095°07'3 5.7
2018-Jan-03 10:00N 29°45' W 095°04'4 7.9
2018-Jan-03 09:30N 29°42' W 095°01'5 9.9
2018-Jan-03 09:01N 29°38' W 094°58'3 5.4
2018-Jan-03 08:31N 29°37' W 095°01'1 1.4
2018-Jan-03 07:57N 29°37' W 095°01'0 0.0
2018-Jan-03 07:27N 29°37' W 095°01'0 0.0
2018-Jan-03 07:00N 29°37' W 095°01'0 0.0
2018-Jan-03 06:27N 29°37' W 095°01'0 0.0
2018-Jan-03 05:57N 29°37' W 095°01'0 0.0
2018-Jan-03 05:27N 29°37' W 095°01'0 0.0
2018-Jan-03 04:57N 29°37' W 095°01'0 0.0
2018-Jan-03 04:27N 29°37' W 095°01'0 0.0
2018-Jan-03 04:00N 29°37' W 095°01'0 0.0
2018-Jan-03 03:18N 29°37' W 095°01'0 0.0
2018-Jan-03 03:00N 29°37' W 095°01'0 0.0
2018-Jan-03 02:30N 29°37' W 095°01'0 0.0
2018-Jan-03 01:42N 29°37' W 095°01'0 0.0
2018-Jan-03 01:30N 29°37' W 095°01'0 0.0
2018-Jan-02 23:15N 29°37' W 095°01'0 0.0
2018-Jan-02 23:00N 29°37' W 095°01'0 0.0
2018-Jan-02 22:18N 29°37' W 095°01'0 0.0
2018-Jan-02 21:48N 29°37' W 095°01'0 0.0
2018-Jan-02 21:27N 29°37' W 095°01'0 0.0
2018-Jan-02 18:48N 29°37' W 095°01'0 0.0
2018-Jan-02 18:27N 29°37' W 095°01'0 0.0
2018-Jan-02 18:00N 29°37' W 095°01'0 0.0
2018-Jan-02 17:27N 29°37' W 095°01'0 0.0
2018-Jan-02 16:15N 29°37' W 095°01'0 0.0
2018-Jan-02 15:54N 29°37' W 095°01'0 0.0
2018-Jan-02 15:24N 29°37' W 095°01'0 0.0
2018-Jan-02 14:15N 29°37' W 095°01'0 0.0
2018-Jan-02 13:57N 29°37' W 095°01'0 0.0
2018-Jan-02 13:06N 29°37' W 095°01'0 0.0
2018-Jan-02 12:45N 29°37' W 095°01'0 0.0
2018-Jan-02 12:30N 29°37' W 095°01'0 0.0
2018-Jan-02 11:36N 29°37' W 095°01'0 0.0
2018-Jan-02 11:06N 29°37' W 095°01'0 0.0
2018-Jan-02 10:57N 29°37' W 095°01'0 0.0
2018-Jan-02 10:24N 29°37' W 095°01'0 0.0
2018-Jan-02 09:54N 29°37' W 095°01'0 0.0
2018-Jan-02 09:27N 29°37' W 095°01'0 0.0
2018-Jan-02 08:30N 29°37' W 095°01'0 0.0
2018-Jan-02 07:45N 29°37' W 095°01'0 0.0
2018-Jan-02 07:21N 29°37' W 095°01'0 0.0
2018-Jan-02 06:45N 29°37' W 095°01'0 0.0
2018-Jan-02 06:27N 29°37' W 095°01'0 0.0
2018-Jan-02 05:57N 29°37' W 095°01'0 0.0
2018-Jan-02 04:21N 29°37' W 095°01'0 0.0
2018-Jan-02 03:54N 29°37' W 095°01'0 0.0
2018-Jan-02 03:30N 29°37' W 095°01'0 0.0
2018-Jan-02 03:00N 29°37' W 095°01'0 0.0
2018-Jan-02 02:27N 29°37' W 095°01'0 0.0
2018-Jan-02 02:00N 29°37' W 095°01'0 0.0
2018-Jan-02 01:27N 29°37' W 095°01'0 0.0
2018-Jan-02 00:21N 29°37' W 095°01'0 0.0
2018-Jan-01 23:54N 29°37' W 095°01'0 0.0
2018-Jan-01 23:27N 29°37' W 095°01'0 0.0
2018-Jan-01 22:57N 29°37' W 095°01'0 0.0
2018-Jan-01 21:39N 29°37' W 095°01'0 0.0
2018-Jan-01 21:09N 29°37' W 095°01'0 0.0
2018-Jan-01 20:57N 29°37' W 095°01'0 0.0
2018-Jan-01 19:27N 29°37' W 095°01'0 0.0
2018-Jan-01 18:15N 29°37' W 095°01'0 0.0
2018-Jan-01 17:57N 29°37' W 095°01'0 0.0
2018-Jan-01 05:48N 29°37' W 095°01'0 0.0
2018-Jan-01 05:30N 29°37' W 095°01'0 0.0
2018-Jan-01 05:00N 29°37' W 095°01'5 5.1
2018-Jan-01 04:00N 29°35' W 094°56'  
2017-Dec-27 18:10N 26°05' W 079°30'212.5
2017-Dec-27 18:00N 26°07' W 079°30'  
Track history (hours):
 
Tides and Currents Weather Stations Pressure Air Temp Water Temp Dewpoint Dewpoint Depression Visibility Wind Speed Wind Dir Waves Ship Positions

Adfines Sun

Last reported at 2018-Jan-05 11:18 UTC. Time now 2018-Jan-21 03:07 UTC.
Position N 29°24' W 094°49'.
Warning: this ship's position is 15 days out of date.

Length 162 m; draft 6.1 m.

Type: Tanker. MMSI: 256764000.

Date/timePositionNaut miles runAvg speedWind from/ knotsBaromVisibWave heightAir tempDewpointWater temp
2018-Jan-05 11:18N 29°24' W 094°49'613.7
2018-Jan-05 10:52N 29°30' W 094°52'513.5
2018-Jan-05 10:31N 29°34' W 094°55'713.3
2018-Jan-05 10:00N 29°40' W 094°58'5 9.1
2018-Jan-05 09:27N 29°44' W 095°02'4 7.6
2018-Jan-05 08:58N 29°46' W 095°05'3 6.4
2018-Jan-05 08:29N 29°44' W 095°08'1 0.0
2018-Jan-03 11:13N 29°44' W 095°09'0 0.5
2018-Jan-03 11:00N 29°44' W 095°09'2 3.9
2018-Jan-03 10:29N 29°44' W 095°07'3 5.7
2018-Jan-03 10:00N 29°45' W 095°04'4 7.9
2018-Jan-03 09:30N 29°42' W 095°01'5 9.9
2018-Jan-03 09:01N 29°38' W 094°58'3 5.4
2018-Jan-03 08:31N 29°37' W 095°01'1 1.4
2018-Jan-03 07:57N 29°37' W 095°01'0 0.0
2018-Jan-03 07:27N 29°37' W 095°01'0 0.0
2018-Jan-03 07:00N 29°37' W 095°01'0 0.0
2018-Jan-03 06:27N 29°37' W 095°01'0 0.0
2018-Jan-03 05:57N 29°37' W 095°01'0 0.0
2018-Jan-03 05:27N 29°37' W 095°01'0 0.0
2018-Jan-03 04:57N 29°37' W 095°01'0 0.0
2018-Jan-03 04:27N 29°37' W 095°01'0 0.0
2018-Jan-03 04:00N 29°37' W 095°01'0 0.0
2018-Jan-03 03:18N 29°37' W 095°01'0 0.0
2018-Jan-03 03:00N 29°37' W 095°01'0 0.0
2018-Jan-03 02:30N 29°37' W 095°01'0 0.0
2018-Jan-03 01:42N 29°37' W 095°01'0 0.0
2018-Jan-03 01:30N 29°37' W 095°01'0 0.0
2018-Jan-02 23:15N 29°37' W 095°01'0 0.0
2018-Jan-02 23:00N 29°37' W 095°01'0 0.0
2018-Jan-02 22:18N 29°37' W 095°01'0 0.0
2018-Jan-02 21:48N 29°37' W 095°01'0 0.0
2018-Jan-02 21:27N 29°37' W 095°01'0 0.0
2018-Jan-02 18:48N 29°37' W 095°01'0 0.0
2018-Jan-02 18:27N 29°37' W 095°01'0 0.0
2018-Jan-02 18:00N 29°37' W 095°01'0 0.0
2018-Jan-02 17:27N 29°37' W 095°01'0 0.0
2018-Jan-02 16:15N 29°37' W 095°01'0 0.0
2018-Jan-02 15:54N 29°37' W 095°01'0 0.0
2018-Jan-02 15:24N 29°37' W 095°01'0 0.0
2018-Jan-02 14:15N 29°37' W 095°01'0 0.0
2018-Jan-02 13:57N 29°37' W 095°01'0 0.0
2018-Jan-02 13:06N 29°37' W 095°01'0 0.0
2018-Jan-02 12:45N 29°37' W 095°01'0 0.0
2018-Jan-02 12:30N 29°37' W 095°01'0 0.0
2018-Jan-02 11:36N 29°37' W 095°01'0 0.0
2018-Jan-02 11:06N 29°37' W 095°01'0 0.0
2018-Jan-02 10:57N 29°37' W 095°01'0 0.0
2018-Jan-02 10:24N 29°37' W 095°01'0 0.0
2018-Jan-02 09:54N 29°37' W 095°01'0 0.0
2018-Jan-02 09:27N 29°37' W 095°01'0 0.0
2018-Jan-02 08:30N 29°37' W 095°01'0 0.0
2018-Jan-02 07:45N 29°37' W 095°01'0 0.0
2018-Jan-02 07:21N 29°37' W 095°01'0 0.0
2018-Jan-02 06:45N 29°37' W 095°01'0 0.0
2018-Jan-02 06:27N 29°37' W 095°01'0 0.0
2018-Jan-02 05:57N 29°37' W 095°01'0 0.0
2018-Jan-02 04:21N 29°37' W 095°01'0 0.0
2018-Jan-02 03:54N 29°37' W 095°01'0 0.0
2018-Jan-02 03:30N 29°37' W 095°01'0 0.0
2018-Jan-02 03:00N 29°37' W 095°01'0 0.0
2018-Jan-02 02:27N 29°37' W 095°01'0 0.0
2018-Jan-02 02:00N 29°37' W 095°01'0 0.0
2018-Jan-02 01:27N 29°37' W 095°01'0 0.0
2018-Jan-02 00:21N 29°37' W 095°01'0 0.0
2018-Jan-01 23:54N 29°37' W 095°01'0 0.0
2018-Jan-01 23:27N 29°37' W 095°01'0 0.0
2018-Jan-01 22:57N 29°37' W 095°01'0 0.0
2018-Jan-01 21:39N 29°37' W 095°01'0 0.0
2018-Jan-01 21:09N 29°37' W 095°01'0 0.0
2018-Jan-01 20:57N 29°37' W 095°01'0 0.0
2018-Jan-01 19:27N 29°37' W 095°01'0 0.0
2018-Jan-01 18:15N 29°37' W 095°01'0 0.0
2018-Jan-01 17:57N 29°37' W 095°01'0 0.0
2018-Jan-01 05:48N 29°37' W 095°01'0 0.0
2018-Jan-01 05:30N 29°37' W 095°01'0 0.0
2018-Jan-01 05:00N 29°37' W 095°01'5 5.1
2018-Jan-01 04:00N 29°35' W 094°56'  
2017-Dec-27 18:10N 26°05' W 079°30'212.5
2017-Dec-27 18:00N 26°07' W 079°30'  

Dump ship's entire track history